Satanta, Kansas
Current Conditions -  °F | °C
As of 10:15 PM on Thursday 27 Nov 2014 (Local Time) from KLBL Reporting Station
Clear Clear  
Wind Chill: 36°   Ceiling: Unl
Heat Index: 43°   Visibility: 10mi
Dew Point: 27°   Wind: 13mph
Humidity: 53%   Direction: 200°SSW
Pressure: 30.12"   Gusts: NA
Location:  37.44°N, 100.97°W
Report Text: KLBL 280415Z AUTO 20011KT 10SM CLR 06/M03 A3012 RMK AO1
Loading
Personal Weather Stations






























Interactive Weather Map New forecast layout! Learn more

10-Day Weather Forecast

Advertisements
Track Severe Weather on mobile